Time,TemperatureF,DewpointF,PressureIn,WindDirection,WindDirectionDegrees,WindSpeedMPH,WindSpeedGustMPH,Humidity,HourlyPrecipIn,Conditions,Clouds,dailyrainin,SoftwareType,DateUTC
2013-01-03 00:18:00,33.4,31.0,30.27,NNE,16,2.0,-999.0,90,-99.99,,,0.00,weatherlink.com 1.10,2013-01-03 05:18:00,
2013-01-03 00:33:00,33.2,31.0,30.26,NNE,17,0.0,-999.0,90,-99.99,,,0.00,weatherlink.com 1.10,2013-01-03 05:33:00,
2013-01-03 00:48:00,33.1,31.0,30.26,NNW,345,0.0,-999.0,91,-99.99,,,0.00,weatherlink.com 1.10,2013-01-03 05:48:00,
2013-01-03 01:03:00,32.9,31.0,30.25,North,2,0.0,-999.0,91,-99.99,,,0.00,weatherlink.com 1.10,2013-01-03 06:03:00,
2013-01-03 01:18:00,32.7,30.0,30.26,North,2,2.0,-999.0,91,-99.99,,,0.00,weatherlink.com 1.10,2013-01-03 06:18:00,
2013-01-03 01:33:00,32.6,30.0,30.26,NNE,18,0.0,-999.0,91,-99.99,,,0.00,weatherlink.com 1.10,2013-01-03 06:33:00,
2013-01-03 01:48:00,32.6,30.0,30.26,NNE,16,0.0,-999.0,91,-99.99,,,0.00,weatherlink.com 1.10,2013-01-03 06:48:00,
2013-01-03 02:03:00,32.6,30.0,30.25,North,349,2.0,-999.0,91,-99.99,,,0.00,weatherlink.com 1.10,2013-01-03 07:03:00,
2013-01-03 02:18:00,32.5,30.0,30.26,NNE,15,0.0,-999.0,91,-99.99,,,0.00,weatherlink.com 1.10,2013-01-03 07:18:00,
2013-01-03 02:33:00,32.3,30.0,30.26,NNE,22,0.0,-999.0,91,-99.99,,,0.00,weatherlink.com 1.10,2013-01-03 07:33:00,
2013-01-03 02:48:00,32.1,30.0,30.27,NNE,13,0.0,-999.0,91,-99.99,,,0.00,weatherlink.com 1.10,2013-01-03 07:48:00,
2013-01-03 03:03:00,31.9,30.0,30.27,North,2,0.0,-999.0,91,-99.99,,,0.00,weatherlink.com 1.10,2013-01-03 08:03:00,
2013-01-03 03:18:00,31.8,30.0,30.27,NNE,14,0.0,-999.0,91,-99.99,,,0.00,weatherlink.com 1.10,2013-01-03 08:18:00,
2013-01-03 03:33:00,31.6,29.0,30.27,NNE,16,0.0,-999.0,91,-99.99,,,0.00,weatherlink.com 1.10,2013-01-03 08:33:00,
2013-01-03 03:48:00,31.5,29.0,30.27,NNE,18,0.0,-999.0,91,-99.99,,,0.00,weatherlink.com 1.10,2013-01-03 08:48:00,
2013-01-03 04:03:00,31.5,29.0,30.27,NNW,348,0.0,-999.0,91,-99.99,,,0.00,weatherlink.com 1.10,2013-01-03 09:03:00,
2013-01-03 04:18:00,31.5,29.0,30.27,NNW,347,0.0,-999.0,91,-99.99,,,0.00,weatherlink.com 1.10,2013-01-03 09:18:00,
2013-01-03 04:33:00,31.5,29.0,30.29,SW,215,0.0,-999.0,91,-99.99,,,0.00,weatherlink.com 1.10,2013-01-03 09:33:00,
2013-01-03 04:48:00,31.4,29.0,30.29,NNE,27,1.0,-999.0,91,-99.99,,,0.00,weatherlink.com 1.10,2013-01-03 09:48:00,
2013-01-03 05:03:00,31.4,29.0,30.28,North,2,0.0,-999.0,91,-99.99,,,0.00,weatherlink.com 1.10,2013-01-03 10:03:00,
2013-01-03 05:18:00,31.4,29.0,30.29,SW,226,0.0,-999.0,91,-99.99,,,0.00,weatherlink.com 1.10,2013-01-03 10:18:00,
2013-01-03 05:33:00,31.4,29.0,30.29,NE,45,0.0,-999.0,91,-99.99,,,0.00,weatherlink.com 1.10,2013-01-03 10:33:00,
2013-01-03 05:48:00,31.3,29.0,30.30,NNE,27,0.0,-999.0,90,-99.99,,,0.00,weatherlink.com 1.10,2013-01-03 10:48:00,
2013-01-03 06:04:00,31.2,29.0,30.30,SSE,165,1.0,-999.0,90,-99.99,,,0.00,weatherlink.com 1.10,2013-01-03 11:04:00,
2013-01-03 06:18:00,31.2,29.0,30.29,NNE,23,0.0,-999.0,90,-99.99,,,0.00,weatherlink.com 1.10,2013-01-03 11:18:00,
2013-01-03 06:33:00,31.2,29.0,30.30,NNE,29,0.0,-999.0,90,-99.99,,,0.00,weatherlink.com 1.10,2013-01-03 11:33:00,
2013-01-03 06:48:00,31.2,29.0,30.30,North,6,0.0,-999.0,90,-99.99,,,0.00,weatherlink.com 1.10,2013-01-03 11:48:00,
2013-01-03 07:03:00,31.3,29.0,30.31,North,6,0.0,-999.0,90,-99.99,,,0.00,weatherlink.com 1.10,2013-01-03 12:03:00,
2013-01-03 07:18:00,31.0,28.0,30.31,NNE,18,1.0,-999.0,89,-99.99,,,0.00,weatherlink.com 1.10,2013-01-03 12:18:00,
2013-01-03 07:33:00,30.8,28.0,30.32,SSW,205,0.0,-999.0,89,-99.99,,,0.00,weatherlink.com 1.10,2013-01-03 12:33:00,
2013-01-03 07:48:00,30.8,28.0,30.32,NW,304,0.0,-999.0,89,-99.99,,,0.00,weatherlink.com 1.10,2013-01-03 12:48:00,
2013-01-03 08:03:00,30.7,28.0,30.32,NE,42,0.0,-999.0,89,-99.99,,,0.00,weatherlink.com 1.10,2013-01-03 13:03:00,
2013-01-03 08:18:00,30.3,27.0,30.33,NNE,33,0.0,-999.0,87,-99.99,,,0.00,weatherlink.com 1.10,2013-01-03 13:18:00,
2013-01-03 08:33:00,30.2,27.0,30.33,WSW,237,0.0,-999.0,88,-99.99,,,0.00,weatherlink.com 1.10,2013-01-03 13:33:00,
2013-01-03 08:48:00,30.2,27.0,30.34,NE,39,0.0,-999.0,87,-99.99,,,0.00,weatherlink.com 1.10,2013-01-03 13:48:00,
2013-01-03 09:03:00,30.4,27.0,30.34,SE,127,0.0,-999.0,88,-99.99,,,0.00,weatherlink.com 1.10,2013-01-03 14:03:00,
2013-01-03 09:18:00,30.6,27.0,30.35,North,357,0.0,-999.0,87,-99.99,,,0.00,weatherlink.com 1.10,2013-01-03 14:18:00,
2013-01-03 09:33:00,30.4,26.0,30.34,NNE,21,0.0,-999.0,85,-99.99,,,0.00,weatherlink.com 1.10,2013-01-03 14:33:00,
2013-01-03 09:48:00,31.0,27.0,30.35,North,8,0.0,-999.0,84,-99.99,,,0.00,weatherlink.com 1.10,2013-01-03 14:48:00,
2013-01-03 10:03:00,31.1,27.0,30.35,NNE,21,1.0,-999.0,83,-99.99,,,0.00,weatherlink.com 1.10,2013-01-03 15:03:00,
2013-01-03 10:33:00,31.6,27.0,30.37,NNE,28,0.0,-999.0,82,-99.99,,,0.00,weatherlink.com 1.10,2013-01-03 15:33:00,
2013-01-03 10:48:00,32.0,27.0,30.37,NNE,19,0.0,-999.0,80,-99.99,,,0.00,weatherlink.com 1.10,2013-01-03 15:48:00,
2013-01-03 11:03:00,32.7,27.0,30.37,NNE,31,0.0,-999.0,78,-99.99,,,0.00,weatherlink.com 1.10,2013-01-03 16:03:00,
2013-01-03 11:18:00,33.6,26.0,30.37,North,11,0.0,-999.0,73,-99.99,,,0.00,weatherlink.com 1.10,2013-01-03 16:18:00,
2013-01-03 11:33:00,34.1,26.0,30.36,NNE,25,0.0,-999.0,72,-99.99,,,0.00,weatherlink.com 1.10,2013-01-03 16:33:00,
2013-01-03 11:48:00,34.8,26.0,30.36,North,352,3.0,-999.0,69,-99.99,,,0.00,weatherlink.com 1.10,2013-01-03 16:48:00,
2013-01-03 12:03:00,36.4,27.0,30.36,NNE,17,0.0,-999.0,68,-99.99,,,0.00,weatherlink.com 1.10,2013-01-03 17:03:00,
2013-01-03 12:18:00,37.0,27.0,30.35,ENE,72,0.0,-999.0,67,-99.99,,,0.00,weatherlink.com 1.10,2013-01-03 17:18:00,
2013-01-03 12:33:00,36.8,26.0,30.35,NNE,33,0.0,-999.0,64,-99.99,,,0.00,weatherlink.com 1.10,2013-01-03 17:33:00,
2013-01-03 12:48:00,36.4,26.0,30.35,NNW,336,0.0,-999.0,67,-99.99,,,0.00,weatherlink.com 1.10,2013-01-03 17:48:00,
2013-01-03 13:03:00,35.7,26.0,30.35,NNE,28,0.0,-999.0,68,-99.99,,,0.00,weatherlink.com 1.10,2013-01-03 18:03:00,
2013-01-03 13:18:00,35.6,27.0,30.35,NNW,333,0.0,-999.0,70,-99.99,,,0.00,weatherlink.com 1.10,2013-01-03 18:18:00,
2013-01-03 13:33:00,35.4,27.0,30.34,NE,51,2.0,-999.0,72,-99.99,,,0.00,weatherlink.com 1.10,2013-01-03 18:33:00,
2013-01-03 13:48:00,35.7,27.0,30.35,NNE,27,1.0,-999.0,71,-99.99,,,0.00,weatherlink.com 1.10,2013-01-03 18:48:00,
2013-01-03 14:03:00,36.7,24.0,30.35,NNE,13,3.0,-999.0,61,-99.99,,,0.00,weatherlink.com 1.10,2013-01-03 19:03:00,
2013-01-03 14:18:00,37.5,25.0,30.34,North,8,1.0,-999.0,60,-99.99,,,0.00,weatherlink.com 1.10,2013-01-03 19:18:00,
2013-01-03 15:03:00,39.3,24.0,30.35,West,259,2.0,-999.0,54,-99.99,,,0.00,weatherlink.com 1.10,2013-01-03 20:03:00,
2013-01-03 15:18:00,39.6,25.0,30.35,NNE,29,0.0,-999.0,56,-99.99,,,0.00,weatherlink.com 1.10,2013-01-03 20:18:00,
2013-01-03 15:33:00,39.6,25.0,30.36,WSW,241,4.0,-999.0,57,-99.99,,,0.00,weatherlink.com 1.10,2013-01-03 20:33:00,
2013-01-03 15:48:00,40.4,25.0,30.36,NNE,27,1.0,-999.0,54,-99.99,,,0.00,weatherlink.com 1.10,2013-01-03 20:48:00,
2013-01-03 16:03:00,40.0,24.0,30.36,North,4,0.0,-999.0,54,-99.99,,,0.00,weatherlink.com 1.10,2013-01-03 21:03:00,
2013-01-03 16:18:00,40.3,26.0,30.37,NNE,31,3.0,-999.0,56,-99.99,,,0.00,weatherlink.com 1.10,2013-01-03 21:18:00,
2013-01-03 16:33:00,40.3,25.0,30.37,NE,37,1.0,-999.0,54,-99.99,,,0.00,weatherlink.com 1.10,2013-01-03 21:33:00,
2013-01-03 16:48:00,40.1,23.0,30.38,SW,232,2.0,-999.0,51,-99.99,,,0.00,weatherlink.com 1.10,2013-01-03 21:48:00,
2013-01-03 17:03:00,39.8,23.0,30.38,NNE,28,0.0,-999.0,51,-99.99,,,0.00,weatherlink.com 1.10,2013-01-03 22:03:00,
2013-01-03 17:18:00,39.3,23.0,30.39,NE,43,0.0,-999.0,52,-99.99,,,0.00,weatherlink.com 1.10,2013-01-03 22:18:00,
2013-01-03 17:33:00,38.6,25.0,30.39,NE,50,0.0,-999.0,58,-99.99,,,0.00,weatherlink.com 1.10,2013-01-03 22:33:00,
2013-01-03 17:48:00,37.6,25.0,30.40,East,96,0.0,-999.0,60,-99.99,,,0.00,weatherlink.com 1.10,2013-01-03 22:48:00,
2013-01-03 18:03:00,37.0,25.0,30.41,NNE,22,1.0,-999.0,62,-99.99,,,0.00,weatherlink.com 1.10,2013-01-03 23:03:00,
2013-01-03 18:18:00,36.5,25.0,30.41,ENE,63,0.0,-999.0,64,-99.99,,,0.00,weatherlink.com 1.10,2013-01-03 23:18:00,
2013-01-03 18:33:00,35.9,25.0,30.41,ENE,63,0.0,-999.0,65,-99.99,,,0.00,weatherlink.com 1.10,2013-01-03 23:33:00,
2013-01-03 18:48:00,35.6,24.0,30.41,NNE,31,3.0,-999.0,63,-99.99,,,0.00,weatherlink.com 1.10,2013-01-03 23:48:00,
2013-01-03 19:03:00,35.2,24.0,30.41,NNE,15,0.0,-999.0,65,-99.99,,,0.00,weatherlink.com 1.10,2013-01-04 00:03:00,
2013-01-03 19:18:00,35.0,24.0,30.42,NNE,33,0.0,-999.0,65,-99.99,,,0.00,weatherlink.com 1.10,2013-01-04 00:18:00,
2013-01-03 19:33:00,34.9,24.0,30.41,East,87,1.0,-999.0,65,-99.99,,,0.00,weatherlink.com 1.10,2013-01-04 00:33:00,
2013-01-03 19:48:00,34.5,24.0,30.42,NNE,16,3.0,-999.0,66,-99.99,,,0.00,weatherlink.com 1.10,2013-01-04 00:48:00,
2013-01-03 20:03:00,34.2,24.0,30.42,North,355,0.0,-999.0,66,-99.99,,,0.00,weatherlink.com 1.10,2013-01-04 01:03:00,
2013-01-03 20:18:00,34.1,24.0,30.42,SSE,157,1.0,-999.0,67,-99.99,,,0.00,weatherlink.com 1.10,2013-01-04 01:18:00,
2013-01-03 20:33:00,33.7,24.0,30.42,East,98,0.0,-999.0,67,-99.99,,,0.00,weatherlink.com 1.10,2013-01-04 01:33:00,
2013-01-03 20:48:00,33.5,24.0,30.42,SSE,164,0.0,-999.0,67,-99.99,,,0.00,weatherlink.com 1.10,2013-01-04 01:48:00,
2013-01-03 21:03:00,33.4,24.0,30.42,North,8,0.0,-999.0,68,-99.99,,,0.00,weatherlink.com 1.10,2013-01-04 02:03:00,
2013-01-03 21:18:00,33.3,24.0,30.43,NNW,346,1.0,-999.0,68,-99.99,,,0.00,weatherlink.com 1.10,2013-01-04 02:18:00,
2013-01-03 21:33:00,33.3,24.0,30.43,NE,41,0.0,-999.0,68,-99.99,,,0.00,weatherlink.com 1.10,2013-01-04 02:33:00,
2013-01-03 21:48:00,33.1,24.0,30.44,ENE,72,0.0,-999.0,69,-99.99,,,0.00,weatherlink.com 1.10,2013-01-04 02:48:00,
2013-01-03 22:03:00,32.9,24.0,30.46,SW,229,0.0,-999.0,69,-99.99,,,0.00,weatherlink.com 1.10,2013-01-04 03:03:00,
2013-01-03 22:18:00,32.7,24.0,30.46,NNE,25,0.0,-999.0,69,-99.99,,,0.00,weatherlink.com 1.10,2013-01-04 03:18:00,
2013-01-03 22:33:00,32.7,23.0,30.46,WSW,245,0.0,-999.0,68,-99.99,,,0.00,weatherlink.com 1.10,2013-01-04 03:33:00,
2013-01-03 22:48:00,32.8,23.0,30.46,SW,234,0.0,-999.0,67,-99.99,,,0.00,weatherlink.com 1.10,2013-01-04 03:48:00,
2013-01-03 23:03:00,32.5,23.0,30.47,SW,234,0.0,-999.0,68,-99.99,,,0.00,weatherlink.com 1.10,2013-01-04 04:03:00,
2013-01-03 23:18:00,32.5,22.0,30.48,SW,233,0.0,-999.0,66,-99.99,,,0.00,weatherlink.com 1.10,2013-01-04 04:18:00,
2013-01-03 23:33:00,32.4,22.0,30.47,East,86,0.0,-999.0,65,-99.99,,,0.00,weatherlink.com 1.10,2013-01-04 04:33:00,
2013-01-03 23:48:00,31.8,22.0,30.47,SW,218,0.0,-999.0,67,-99.99,,,0.00,weatherlink.com 1.10,2013-01-04 04:48:00,